ADDS METAR Data INFO
IDs: Format: Raw Decoded Include TAF

Data at: 0541 UTC 21 Apr 2018

METAR for:KPKB (Parkersburg/Wood Cnt, WV, US)
Text:KPKB 210453Z AUTO 01003KT 10SM CLR 06/M07 A3046 RMK AO2 SLP319 T00611067 401501022
Temperature: 6.1°C ( 43°F)
Dewpoint: -6.7°C ( 20°F) [RH = 39%]
Pressure (altimeter):30.46 inches Hg (1031.6 mb) [Sea level pressure: 1031.9 mb]
Winds:from the N (10 degrees) at 3 MPH (3 knots; 1.5 m/s)
Visibility:10 or more sm (16+ km)
Ceiling:at least 12,000 feet AGL
Clouds:sky clear below 12,000 feet AGL
QC Flag:automated observation with no human augmentation
Text:KPKB 210353Z AUTO 34004KT 10SM CLR 04/M03 A3045 RMK AO2 SLP314 T00441028
Temperature: 4.4°C ( 40°F)
Dewpoint: -2.8°C ( 27°F) [RH = 59%]
Pressure (altimeter):30.45 inches Hg (1031.2 mb) [Sea level pressure: 1031.4 mb]
Winds:from the NNW (340 degrees) at 5 MPH (4 knots; 2.1 m/s)
Visibility:10 or more sm (16+ km)
Ceiling:at least 12,000 feet AGL
Clouds:sky clear below 12,000 feet AGL
QC Flag:automated observation with no human augmentation
Text:KPKB 210253Z 02003KT 10SM CLR 07/M04 A3044 RMK AO2 SLP310 T00671044 50006
Temperature: 6.7°C ( 44°F)
Dewpoint: -4.4°C ( 24°F) [RH = 45%]
Pressure (altimeter):30.44 inches Hg (1030.9 mb) [Sea level pressure: 1031.0 mb]
Winds:from the NNE (20 degrees) at 3 MPH (3 knots; 1.5 m/s)
Visibility:10 or more sm (16+ km)
Ceiling:at least 12,000 feet AGL
Clouds:sky clear below 12,000 feet AGL
Text:KPKB 210153Z 01006KT 10SM CLR 09/M07 A3044 RMK AO2 SLP312 T00941067
Temperature: 9.4°C ( 49°F)
Dewpoint: -6.7°C ( 20°F) [RH = 31%]
Pressure (altimeter):30.44 inches Hg (1030.9 mb) [Sea level pressure: 1031.2 mb]
Winds:from the N (10 degrees) at 7 MPH (6 knots; 3.1 m/s)
Visibility:10 or more sm (16+ km)
Ceiling:at least 12,000 feet AGL
Clouds:sky clear below 12,000 feet AGL
Text:KPKB 210053Z 02005KT 10SM CLR 11/M07 A3043 RMK AO2 SLP307 T01061072
Temperature: 10.6°C ( 51°F)
Dewpoint: -7.2°C ( 19°F) [RH = 28%]
Pressure (altimeter):30.43 inches Hg (1030.6 mb) [Sea level pressure: 1030.7 mb]
Winds:from the NNE (20 degrees) at 6 MPH (5 knots; 2.6 m/s)
Visibility:10 or more sm (16+ km)
Ceiling:at least 12,000 feet AGL
Clouds:sky clear below 12,000 feet AGL
Text:KPKB 202353Z 36004KT 10SM CLR 12/M07 A3042 RMK AO2 SLP305 T01221072 10150 20106 53000
Temperature: 12.2°C ( 54°F)
Dewpoint: -7.2°C ( 19°F) [RH = 25%]
Pressure (altimeter):30.42 inches Hg (1030.2 mb) [Sea level pressure: 1030.5 mb]
Winds:from the N (360 degrees) at 5 MPH (4 knots; 2.1 m/s)
Visibility:10 or more sm (16+ km)
Ceiling:at least 12,000 feet AGL
Clouds:sky clear below 12,000 feet AGL
Text:KPKB 202253Z VRB05KT 10SM CLR 14/M06 A3041 RMK AO2 SLP303 T01391056
Temperature: 13.9°C ( 57°F)
Dewpoint: -5.6°C ( 22°F) [RH = 25%]
Pressure (altimeter):30.41 inches Hg (1029.9 mb) [Sea level pressure: 1030.3 mb]
Winds:variable direction winds at 6 MPH (5 knots; 2.6 m/s)
Visibility:10 or more sm (16+ km)
Ceiling:at least 12,000 feet AGL
Clouds:sky clear below 12,000 feet AGL
Text:KPKB 202153Z 34009KT 10SM CLR 15/M06 A3041 RMK AO2 SLP302 T01501056
Temperature: 15.0°C ( 59°F)
Dewpoint: -5.6°C ( 22°F) [RH = 24%]
Pressure (altimeter):30.41 inches Hg (1029.9 mb) [Sea level pressure: 1030.2 mb]
Winds:from the NNW (340 degrees) at 10 MPH (9 knots; 4.6 m/s)
Visibility:10 or more sm (16+ km)
Ceiling:at least 12,000 feet AGL
Clouds:sky clear below 12,000 feet AGL
Text:KPKB 202053Z 02006KT 10SM CLR 14/M06 A3042 RMK AO2 SLP303 T01441061 56013
Temperature: 14.4°C ( 58°F)
Dewpoint: -6.1°C ( 21°F) [RH = 24%]
Pressure (altimeter):30.42 inches Hg (1030.2 mb) [Sea level pressure: 1030.3 mb]
Winds:from the NNE (20 degrees) at 7 MPH (6 knots; 3.1 m/s)
Visibility:10 or more sm (16+ km)
Ceiling:at least 12,000 feet AGL
Clouds:sky clear below 12,000 feet AGL
Text:KPKB 201953Z 31009KT 10SM CLR 14/M06 A3043 RMK AO2 SLP307 T01391056
Temperature: 13.9°C ( 57°F)
Dewpoint: -5.6°C ( 22°F) [RH = 25%]
Pressure (altimeter):30.43 inches Hg (1030.6 mb) [Sea level pressure: 1030.7 mb]
Winds:from the NW (310 degrees) at 10 MPH (9 knots; 4.6 m/s)
Visibility:10 or more sm (16+ km)
Ceiling:at least 12,000 feet AGL
Clouds:sky clear below 12,000 feet AGL
Text:KPKB 201853Z 29006G15KT 10SM CLR 13/M06 A3044 RMK AO2 SLP311 T01281061
Temperature: 12.8°C ( 55°F)
Dewpoint: -6.1°C ( 21°F) [RH = 26%]
Pressure (altimeter):30.44 inches Hg (1030.9 mb) [Sea level pressure: 1031.1 mb]
Winds:from the WNW (290 degrees) at 7 MPH (6 knots; 3.1 m/s) gusting to 17 MPH (15 knots; 7.7 m/s)
Visibility:10 or more sm (16+ km)
Ceiling:at least 12,000 feet AGL
Clouds:sky clear below 12,000 feet AGL
Text:KPKB 201753Z 33007G18KT 280V020 10SM CLR 12/M06 A3046 RMK AO2 SLP317 T01171061 10122 20000 58010
Temperature: 11.7°C ( 53°F)
Dewpoint: -6.1°C ( 21°F) [RH = 28%]
Pressure (altimeter):30.46 inches Hg (1031.6 mb) [Sea level pressure: 1031.7 mb]
Winds:from the NNW (330 degrees) at 8 MPH (7 knots; 3.6 m/s) gusting to 21 MPH (18 knots; 9.3 m/s)
Visibility:10 or more sm (16+ km)
Ceiling:at least 12,000 feet AGL
Clouds:sky clear below 12,000 feet AGL
Text:KPKB 201653Z 32007KT 10SM CLR 11/M06 A3047 RMK AO2 SLP321 T01061061
Temperature: 10.6°C ( 51°F)
Dewpoint: -6.1°C ( 21°F) [RH = 30%]
Pressure (altimeter):30.47 inches Hg (1031.9 mb) [Sea level pressure: 1032.1 mb]
Winds:from the NW (320 degrees) at 8 MPH (7 knots; 3.6 m/s)
Visibility:10 or more sm (16+ km)
Ceiling:at least 12,000 feet AGL
Clouds:sky clear below 12,000 feet AGL
Text:KPKB 201553Z 03006KT 10SM CLR 09/M06 A3048 RMK AO2 SLP324 T00941061
Temperature: 9.4°C ( 49°F)
Dewpoint: -6.1°C ( 21°F) [RH = 33%]
Pressure (altimeter):30.48 inches Hg (1032.3 mb) [Sea level pressure: 1032.4 mb]
Winds:from the NNE (30 degrees) at 7 MPH (6 knots; 3.1 m/s)
Visibility:10 or more sm (16+ km)
Ceiling:at least 12,000 feet AGL
Clouds:sky clear below 12,000 feet AGL
Text:KPKB 201453Z 32007KT 10SM CLR 08/M04 A3049 RMK AO2 SLP328 T00831044 51017
Temperature: 8.3°C ( 47°F)
Dewpoint: -4.4°C ( 24°F) [RH = 40%]
Pressure (altimeter):30.49 inches Hg (1032.6 mb) [Sea level pressure: 1032.8 mb]
Winds:from the NW (320 degrees) at 8 MPH (7 knots; 3.6 m/s)
Visibility:10 or more sm (16+ km)
Ceiling:at least 12,000 feet AGL
Clouds:sky clear below 12,000 feet AGL
Text:KPKB 201353Z 32009KT 10SM CLR 07/M05 A3048 RMK AO2 SLP325 T00671050
Temperature: 6.7°C ( 44°F)
Dewpoint: -5.0°C ( 23°F) [RH = 43%]
Pressure (altimeter):30.48 inches Hg (1032.3 mb) [Sea level pressure: 1032.5 mb]
Winds:from the NW (320 degrees) at 10 MPH (9 knots; 4.6 m/s)
Visibility:10 or more sm (16+ km)
Ceiling:at least 12,000 feet AGL
Clouds:sky clear below 12,000 feet AGL
Text:KPKB 201253Z 34003KT 10SM CLR 04/M04 A3046 RMK AO2 SLP319 T00391039
Temperature: 3.9°C ( 39°F)
Dewpoint: -3.9°C ( 25°F) [RH = 57%]
Pressure (altimeter):30.46 inches Hg (1031.6 mb) [Sea level pressure: 1031.9 mb]
Winds:from the NNW (340 degrees) at 3 MPH (3 knots; 1.5 m/s)
Visibility:10 or more sm (16+ km)
Ceiling:at least 12,000 feet AGL
Clouds:sky clear below 12,000 feet AGL
Text:KPKB 201153Z 00000KT 10SM CLR M01/M04 A3044 RMK AO2 SLP312 70002 T10061039 10039 21022 53017
Temperature: -0.6°C ( 31°F)
Dewpoint: -3.9°C ( 25°F) [RH = 78%]
Pressure (altimeter):30.44 inches Hg (1030.9 mb) [Sea level pressure: 1031.2 mb]
Winds:calm
Visibility:10 or more sm (16+ km)
Ceiling:at least 12,000 feet AGL
Clouds:sky clear below 12,000 feet AGL
Text:KPKB 201053Z 00000KT 10SM CLR M02/M05 A3041 RMK AO2 SLP304 T10171050
Temperature: -1.7°C ( 29°F)
Dewpoint: -5.0°C ( 23°F) [RH = 78%]
Pressure (altimeter):30.41 inches Hg (1029.9 mb) [Sea level pressure: 1030.4 mb]
Winds:calm
Visibility:10 or more sm (16+ km)
Ceiling:at least 12,000 feet AGL
Clouds:sky clear below 12,000 feet AGL
Text:KPKB 200953Z AUTO 00000KT 10SM CLR M02/M05 A3039 RMK AO2 SLP297 T10171050
Temperature: -1.7°C ( 29°F)
Dewpoint: -5.0°C ( 23°F) [RH = 78%]
Pressure (altimeter):30.39 inches Hg (1029.2 mb) [Sea level pressure: 1029.7 mb]
Winds:calm
Visibility:10 or more sm (16+ km)
Ceiling:at least 12,000 feet AGL
Clouds:sky clear below 12,000 feet AGL
QC Flag:automated observation with no human augmentation
Text:KPKB 200853Z AUTO 00000KT 10SM CLR 01/M06 A3039 RMK AO2 SLP295 T00061056 51019
Temperature: 0.6°C ( 33°F)
Dewpoint: -5.6°C ( 22°F) [RH = 63%]
Pressure (altimeter):30.39 inches Hg (1029.2 mb) [Sea level pressure: 1029.5 mb]
Winds:calm
Visibility:10 or more sm (16+ km)
Ceiling:at least 12,000 feet AGL
Clouds:sky clear below 12,000 feet AGL
QC Flag:automated observation with no human augmentation
Text:KPKB 200753Z AUTO 34004KT 10SM CLR 02/M06 A3038 RMK AO2 SLP290 T00221061
Temperature: 2.2°C ( 36°F)
Dewpoint: -6.1°C ( 21°F) [RH = 54%]
Pressure (altimeter):30.38 inches Hg (1028.9 mb) [Sea level pressure: 1029.0 mb]
Winds:from the NNW (340 degrees) at 5 MPH (4 knots; 2.1 m/s)
Visibility:10 or more sm (16+ km)
Ceiling:at least 12,000 feet AGL
Clouds:sky clear below 12,000 feet AGL
QC Flag:automated observation with no human augmentation
Text:KPKB 200653Z AUTO 35004KT 10SM CLR 03/M06 A3035 RMK AO2 SLP284 T00331061
Temperature: 3.3°C ( 38°F)
Dewpoint: -6.1°C ( 21°F) [RH = 50%]
Pressure (altimeter):30.35 inches Hg (1027.9 mb) [Sea level pressure: 1028.4 mb]
Winds:from the N (350 degrees) at 5 MPH (4 knots; 2.1 m/s)
Visibility:10 or more sm (16+ km)
Ceiling:at least 12,000 feet AGL
Clouds:sky clear below 12,000 feet AGL
QC Flag:automated observation with no human augmentation
Text:KPKB 200553Z AUTO 02007KT 10SM CLR 03/M03 A3033 RMK AO2 SLP276 T00331028 10083 20033 53019
Temperature: 3.3°C ( 38°F)
Dewpoint: -2.8°C ( 27°F) [RH = 64%]
Pressure (altimeter):30.33 inches Hg (1027.2 mb) [Sea level pressure: 1027.6 mb]
Winds:from the NNE (20 degrees) at 8 MPH (7 knots; 3.6 m/s)
Visibility:10 or more sm (16+ km)
Ceiling:at least 12,000 feet AGL
Clouds:sky clear below 12,000 feet AGL
QC Flag:automated observation with no human augmentation